Terminal Aerodrome Forecast
Issued by NWS

Home | Current Version | Previous Version | Text Only | Print | Product List | Glossary On
Versions: 1 2 3 4 5 6 7 8 9 10 11 12 13 14
000
FTUS45 KCYS 241130
TAFLAR
TAF
KLAR 241130Z 2412/2512 20006KT P6SM FEW250
     FM241600 06005KT P6SM FEW250
     FM242000 14010KT P6SM VCTS SCT100CB
     FM250300 13010KT P6SM SCT250=

USA.gov is the U.S. government's official web portal to all federal, state and local government web resources and services.